Time;durP1;ratioP1;P1;durP2;ratioP2;P2;SDS_P1;SDS_P2;PMS_P1;PMS_P2;Temp;Humidity;BMP_temperature;BMP_pressure;BME280_temperature;BME280_humidity;BME280_pressure;Samples;Min_cycle;Max_cycle;Signal;HPM_P1;HPM_P2
2023/07/15 00:00:22;;;;;;;0.77;0.30;;;;;;;16.54;54.77;101251.78;5011146;28;20062;-80
2023/07/15 00:02:50;;;;;;;1.52;0.30;;;;;;;16.32;54.73;101231.44;5011259;28;20054;-81
2023/07/15 00:05:21;;;;;;;0.70;0.30;;;;;;;16.46;55.00;101252.06;5011456;28;20042;-80
2023/07/15 00:07:48;;;;;;;1.88;0.30;;;;;;;16.43;55.00;101260.06;5011642;28;20202;-80
2023/07/15 00:10:16;;;;;;;0.73;0.20;;;;;;;16.38;55.25;101260.22;5010944;28;20042;-80
2023/07/15 00:12:43;;;;;;;0.93;0.30;;;;;;;16.36;55.26;101264.72;5010995;28;20045;-79
2023/07/15 00:15:12;;;;;;;10.15;0.28;;;;;;;16.34;55.47;101268.31;5014397;28;20054;-80
2023/07/15 00:17:40;;;;;;;1.95;0.25;;;;;;;16.31;55.35;101265.78;5015672;28;20445;-80
2023/07/15 00:20:14;;;;;;;0.65;0.30;;;;;;;16.28;55.43;101264.09;5015031;28;20125;-80
2023/07/15 00:22:43;;;;;;;1.95;0.20;;;;;;;16.25;55.25;101261.59;5015172;28;20050;-80
2023/07/15 00:25:15;;;;;;;5.13;0.30;;;;;;;16.23;55.48;101259.91;5015099;28;20077;-80
2023/07/15 00:27:42;;;;;;;1.02;0.30;;;;;;;16.20;55.45;101258.25;5015519;28;20054;-80
2023/07/15 00:30:10;;;;;;;0.40;0.30;;;;;;;16.17;55.56;101259.19;5014779;28;20050;-79
2023/07/15 00:32:37;;;;;;;0.30;0.30;;;;;;;16.14;55.67;101258.44;5014948;28;20116;-80
2023/07/15 00:35:19;;;;;;;1.13;0.35;;;;;;;16.11;55.69;101263.81;5014591;28;20056;-80
2023/07/15 00:37:45;;;;;;;0.82;0.30;;;;;;;16.08;55.98;101261.25;5015034;28;20054;-80
2023/07/15 00:40:13;;;;;;;0.68;0.30;;;;;;;16.05;55.97;101261.38;5014703;28;20609;-80
2023/07/15 00:43:02;;;;;;;2.75;0.30;;;;;;;16.00;56.32;101256.28;5012324;28;20053;-80
2023/07/15 00:45:28;;;;;;;0.38;0.20;;;;;;;15.99;56.12;101262.44;5012631;28;20513;-80
2023/07/15 00:48:05;;;;;;;1.08;0.30;;;;;;;15.95;56.29;101258.19;5014778;28;20049;-81
2023/07/15 00:50:32;;;;;;;0.40;0.30;;;;;;;15.93;56.46;101260.00;5014463;28;20046;-81
2023/07/15 00:52:59;;;;;;;1.67;0.30;;;;;;;15.90;56.54;101254.84;5014644;28;20088;-80
2023/07/15 00:55:27;;;;;;;0.40;0.30;;;;;;;15.85;56.57;101260.28;5014326;28;20513;-80
2023/07/15 00:57:57;;;;;;;1.00;0.38;;;;;;;15.83;56.62;101259.47;5014439;28;20053;-81
2023/07/15 01:00:24;;;;;;;1.75;0.30;;;;;;;15.80;56.69;101262.19;5013986;28;20069;-80
2023/07/15 01:02:51;;;;;;;0.40;0.30;;;;;;;15.78;56.71;101271.91;5014757;28;20069;-80
2023/07/15 01:05:20;;;;;;;0.47;0.22;;;;;;;15.77;56.82;101266.69;5014466;28;20053;-80
2023/07/15 01:07:47;;;;;;;1.25;0.30;;;;;;;15.71;56.78;101265.13;5014699;28;20046;-80
2023/07/15 01:10:15;;;;;;;2.65;0.30;;;;;;;15.71;57.02;101270.41;5014269;28;20056;-81
2023/07/15 01:12:41;;;;;;;1.58;0.30;;;;;;;15.67;57.19;101268.72;5014118;28;20153;-80
2023/07/15 01:15:09;;;;;;;0.30;0.25;;;;;;;15.67;57.08;101271.34;5013993;28;20052;-80
2023/07/15 01:17:36;;;;;;;1.05;0.35;;;;;;;15.64;57.17;101274.09;5014351;28;20614;-80
2023/07/15 01:20:05;;;;;;;0.88;0.30;;;;;;;15.63;57.50;101269.75;5014230;28;20400;-80
2023/07/15 01:22:38;;;;;;;1.63;0.40;;;;;;;15.58;57.38;101266.38;5014107;28;20050;-80
2023/07/15 01:25:06;;;;;;;2.45;0.30;;;;;;;15.58;57.45;101266.38;5012566;28;20045;-80
2023/07/15 01:27:33;;;;;;;0.20;0.20;;;;;;;15.55;57.43;101274.38;5014068;28;20050;-80
2023/07/15 01:30:00;;;;;;;0.95;0.30;;;;;;;15.52;57.61;101270.06;5014001;28;20406;-81
2023/07/15 01:32:27;;;;;;;1.13;0.40;;;;;;;15.49;57.49;101268.41;5008296;28;20048;-81
2023/07/15 01:34:54;;;;;;;1.35;0.30;;;;;;;15.47;57.81;101272.84;5013524;28;20053;-80
2023/07/15 01:37:21;;;;;;;0.85;0.35;;;;;;;15.44;57.75;101272.94;5013917;28;20046;-80
2023/07/15 01:39:50;;;;;;;1.17;0.38;;;;;;;15.42;57.76;101280.00;5013714;28;20793;-79
2023/07/15 01:42:17;;;;;;;0.95;0.30;;;;;;;15.39;57.93;101279.25;5013369;28;20491;-80
2023/07/15 01:44:43;;;;;;;1.33;0.40;;;;;;;15.36;57.93;101274.94;5013920;28;20046;-80
2023/07/15 01:47:10;;;;;;;0.30;0.30;;;;;;;15.33;58.02;101272.41;5013494;28;20049;-80
2023/07/15 01:49:37;;;;;;;2.95;1.10;;;;;;;15.30;57.99;101281.25;5013506;28;20046;-79
2023/07/15 01:52:06;;;;;;;3.35;0.35;;;;;;;15.27;58.10;101280.47;5013596;28;20092;-80
2023/07/15 01:54:33;;;;;;;0.30;0.30;;;;;;;15.24;57.99;101278.81;5013413;28;20080;-79
2023/07/15 01:57:01;;;;;;;2.05;0.30;;;;;;;15.22;58.16;101282.38;5013346;28;20050;-80
2023/07/15 01:59:28;;;;;;;0.73;0.30;;;;;;;15.20;58.18;101290.34;5013090;28;20088;-80
2023/07/15 02:01:58;;;;;;;1.27;0.40;;;;;;;15.16;58.18;101283.44;5013023;28;20100;-80
2023/07/15 02:04:25;;;;;;;2.15;0.40;;;;;;;15.14;58.50;101287.00;5012943;28;20050;-80
2023/07/15 02:06:51;;;;;;;1.17;0.50;;;;;;;15.12;58.61;101286.22;5012957;28;20062;-80
2023/07/15 02:09:18;;;;;;;0.40;0.30;;;;;;;15.10;58.69;101283.59;5013099;28;20045;-81
2023/07/15 02:11:47;;;;;;;1.98;0.60;;;;;;;15.05;58.76;101281.13;5012969;28;20050;-80
2023/07/15 02:14:15;;;;;;;1.08;0.30;;;;;;;15.04;59.01;101282.03;5013578;28;20081;-80
2023/07/15 02:16:42;;;;;;;2.53;0.30;;;;;;;15.03;59.01;101289.97;5013030;28;20041;-80
2023/07/15 02:19:09;;;;;;;1.13;0.35;;;;;;;15.01;58.97;101279.47;5012551;28;20048;-80
2023/07/15 02:21:36;;;;;;;0.70;0.22;;;;;;;14.98;59.02;101286.59;5012942;28;20594;-80
2023/07/15 02:24:03;;;;;;;1.05;0.40;;;;;;;14.97;59.08;101287.50;5012903;28;20042;-79
2023/07/15 02:26:29;;;;;;;0.50;0.30;;;;;;;14.95;59.27;101287.56;5012542;28;20050;-80
2023/07/15 02:28:57;;;;;;;0.75;0.30;;;;;;;14.93;59.37;101281.47;5012650;28;20042;-81
2023/07/15 02:31:25;;;;;;;2.85;0.35;;;;;;;14.91;59.38;101279.78;5012784;28;20045;-80
2023/07/15 02:33:52;;;;;;;2.25;0.30;;;;;;;14.88;59.47;101278.09;5013203;28;20045;-81
2023/07/15 02:36:20;;;;;;;1.27;0.32;;;;;;;14.87;59.43;101286.91;5012296;28;20129;-82
2023/07/15 02:38:47;;;;;;;0.40;0.30;;;;;;;14.85;59.52;101289.56;5012686;28;20566;-82
2023/07/15 02:41:14;;;;;;;0.52;0.30;;;;;;;14.84;59.47;101287.00;5012979;28;20380;-82
2023/07/15 02:43:41;;;;;;;1.30;0.32;;;;;;;14.83;59.71;101295.78;5012813;28;20050;-82
2023/07/15 02:46:08;;;;;;;2.25;0.35;;;;;;;14.80;59.76;101283.59;5012113;28;20088;-82
2023/07/15 02:48:36;;;;;;;1.90;0.30;;;;;;;14.79;59.92;101284.47;5012545;28;20426;-83
2023/07/15 02:51:03;;;;;;;6.07;0.30;;;;;;;14.77;59.98;101290.69;4998045;28;20057;-82
2023/07/15 02:53:31;;;;;;;1.35;0.80;;;;;;;14.76;60.09;101288.97;5012939;28;20054;-82
2023/07/15 02:55:57;;;;;;;3.40;0.50;;;;;;;14.75;60.14;101287.25;4996516;28;20104;-82
2023/07/15 02:58:24;;;;;;;0.38;0.30;;;;;;;14.72;60.15;101285.56;5011292;28;20054;-73
2023/07/15 03:00:52;;;;;;;3.50;0.60;;;;;;;14.72;60.41;101288.19;5007669;28;20111;-74
2023/07/15 03:03:19;;;;;;;0.95;0.40;;;;;;;14.71;60.42;101293.47;5008245;28;20053;-74
2023/07/15 03:05:48;;;;;;;1.67;0.30;;;;;;;14.69;60.54;101292.69;5007801;28;20481;-73
2023/07/15 03:08:15;;;;;;;0.77;0.63;;;;;;;14.60;60.49;101278.88;5008041;28;20048;-74
2023/07/15 03:10:43;;;;;;;1.15;0.40;;;;;;;14.68;60.60;101296.19;5007525;28;20137;-74
2023/07/15 03:13:10;;;;;;;0.82;0.30;;;;;;;14.68;60.81;101298.84;5005944;28;20654;-73
2023/07/15 03:15:37;;;;;;;0.93;0.35;;;;;;;14.68;61.00;101304.09;5005545;28;20058;-73
2023/07/15 03:18:04;;;;;;;2.75;0.32;;;;;;;14.67;60.99;101310.25;5005547;28;20053;-75
2023/07/15 03:20:31;;;;;;;1.38;0.55;;;;;;;14.66;61.17;101309.41;5004720;28;20050;-73
2023/07/15 03:22:59;;;;;;;1.85;0.32;;;;;;;14.67;61.69;101302.38;5004882;28;20516;-74
2023/07/15 03:25:26;;;;;;;0.80;0.40;;;;;;;14.66;61.46;101314.66;5007933;28;20077;-74
2023/07/15 03:27:53;;;;;;;0.50;0.40;;;;;;;14.67;61.63;101311.13;5007711;28;20045;-73
2023/07/15 03:30:20;;;;;;;0.98;0.30;;;;;;;14.67;61.81;101313.75;5007730;28;20487;-74
2023/07/15 03:32:48;;;;;;;0.45;0.30;;;;;;;14.68;61.92;101306.72;5007294;28;20137;-74
2023/07/15 03:35:15;;;;;;;3.25;0.40;;;;;;;14.69;61.91;101311.09;5007696;28;20056;-75
2023/07/15 03:37:42;;;;;;;0.88;0.47;;;;;;;14.70;62.18;101304.91;5007487;28;20045;-73
2023/07/15 03:40:12;;;;;;;2.22;0.50;;;;;;;14.72;62.51;101308.38;5007535;28;20050;-74
2023/07/15 03:42:39;;;;;;;1.38;0.40;;;;;;;14.73;62.66;101308.31;5007305;28;20062;-74
2023/07/15 03:45:07;;;;;;;1.35;0.40;;;;;;;14.75;62.64;101310.91;5007637;28;20054;-73
2023/07/15 03:47:34;;;;;;;1.60;0.50;;;;;;;14.75;62.94;101314.41;5007668;28;20060;-73
2023/07/15 03:50:02;;;;;;;3.28;0.40;;;;;;;14.78;63.17;101308.22;5010521;28;20103;-73
2023/07/15 03:52:29;;;;;;;0.60;0.40;;;;;;;14.83;63.28;101311.56;5011037;28;20057;-74
2023/07/15 03:54:57;;;;;;;1.30;0.55;;;;;;;14.86;63.40;101314.13;5011656;28;20057;-74
2023/07/15 03:57:25;;;;;;;1.17;0.40;;;;;;;14.90;63.59;101307.00;5009915;28;20061;-74
2023/07/15 03:59:52;;;;;;;1.42;0.40;;;;;;;14.93;63.56;101313.03;5009823;28;20052;-74
2023/07/15 04:02:19;;;;;;;1.27;0.40;;;;;;;14.98;63.33;101305.88;5011210;28;20080;-74
2023/07/15 04:04:46;;;;;;;3.33;0.40;;;;;;;15.03;63.45;101314.50;5011310;28;20042;-74
2023/07/15 04:07:13;;;;;;;2.10;0.40;;;;;;;15.09;63.29;101317.88;5011768;28;20672;-74
2023/07/15 04:09:40;;;;;;;0.68;0.30;;;;;;;15.15;63.22;101317.69;5011172;28;20050;-73
2023/07/15 04:12:09;;;;;;;1.35;0.52;;;;;;;15.21;63.26;101317.50;5009290;28;20049;-74
2023/07/15 04:14:37;;;;;;;0.47;0.40;;;;;;;15.26;63.16;101302.47;5009380;28;20042;-74
2023/07/15 04:17:05;;;;;;;0.98;0.45;;;;;;;15.36;63.10;101313.56;5011159;28;20042;-74
2023/07/15 04:19:32;;;;;;;4.00;0.40;;;;;;;15.43;63.07;101310.72;5009731;28;20070;-74
2023/07/15 04:21:58;;;;;;;1.77;0.50;;;;;;;15.49;63.11;101310.53;5010943;28;20721;-74
2023/07/15 04:24:25;;;;;;;1.85;0.40;;;;;;;15.59;63.24;101315.50;5011110;28;20078;-74
2023/07/15 04:26:52;;;;;;;0.80;0.45;;;;;;;15.65;63.10;101316.19;5010812;28;20046;-74
2023/07/15 04:29:19;;;;;;;1.98;0.40;;;;;;;15.69;63.04;101309.94;5011064;28;20057;-74
2023/07/15 04:31:48;;;;;;;2.45;0.65;;;;;;;15.80;63.29;101317.50;5010701;28;20045;-73
2023/07/15 04:34:14;;;;;;;2.78;0.40;;;;;;;15.88;63.12;101320.78;5010988;28;20217;-74
2023/07/15 04:36:41;;;;;;;1.00;0.50;;;;;;;15.96;63.03;101320.50;5010447;28;20054;-74
2023/07/15 04:39:08;;;;;;;0.50;0.40;;;;;;;16.00;63.22;101308.97;5010611;28;20045;-74
2023/07/15 04:41:35;;;;;;;2.25;0.40;;;;;;;16.14;62.93;101314.66;5010433;28;20145;-74
2023/07/15 04:44:03;;;;;;;2.58;0.40;;;;;;;16.25;62.90;101319.56;5010622;28;20510;-73
2023/07/15 04:46:30;;;;;;;2.08;0.50;;;;;;;16.35;62.78;101314.84;5009013;28;20058;-74
2023/07/15 04:48:58;;;;;;;0.40;0.40;;;;;;;16.46;62.57;101317.13;5010594;28;20152;-73
2023/07/15 04:51:25;;;;;;;0.68;0.40;;;;;;;16.55;62.32;101316.78;5008834;28;20054;-74
2023/07/15 04:53:52;;;;;;;3.70;0.55;;;;;;;16.66;62.05;101313.78;5010260;28;20046;-74
2023/07/15 04:56:19;;;;;;;2.15;0.40;;;;;;;16.78;61.94;101319.50;5010073;28;20435;-75
2023/07/15 04:58:46;;;;;;;0.52;0.40;;;;;;;16.90;61.87;101315.56;5010316;28;20052;-74
2023/07/15 05:01:13;;;;;;;1.30;0.43;;;;;;;17.00;61.47;101316.97;5009704;28;20053;-74
2023/07/15 05:03:41;;;;;;;2.28;0.40;;;;;;;17.12;61.42;101323.56;5010443;28;20054;-73
2023/07/15 05:06:10;;;;;;;2.13;0.47;;;;;;;17.23;60.87;101321.41;5010389;28;20466;-74
2023/07/15 05:08:37;;;;;;;3.15;0.43;;;;;;;17.33;60.72;101326.31;5009788;28;20046;-74
2023/07/15 05:11:04;;;;;;;0.50;0.30;;;;;;;17.42;60.97;101326.00;5010312;28;20049;-74
2023/07/15 05:13:31;;;;;;;2.67;0.70;;;;;;;17.51;60.69;101323.84;5009953;28;20045;-74
2023/07/15 05:15:58;;;;;;;0.35;0.30;;;;;;;17.60;60.65;101322.63;5010053;28;20054;-75
2023/07/15 05:18:25;;;;;;;2.83;0.57;;;;;;;17.71;60.18;101320.44;5010029;28;20045;-74
2023/07/15 05:20:51;;;;;;;1.58;0.50;;;;;;;17.82;60.10;101327.13;5009929;28;20042;-74
2023/07/15 05:23:21;;;;;;;1.58;0.40;;;;;;;17.92;59.77;101326.66;5009863;28;20060;-74
2023/07/15 05:25:48;;;;;;;1.35;0.40;;;;;;;18.04;59.48;101335.03;5010174;28;20630;-74
2023/07/15 05:28:15;;;;;;;0.55;0.40;;;;;;;18.13;59.46;101332.88;5009822;28;20129;-74
2023/07/15 05:30:42;;;;;;;1.58;0.40;;;;;;;18.26;59.40;101341.16;5009697;28;20530;-74
2023/07/15 05:33:09;;;;;;;0.73;0.35;;;;;;;18.36;59.16;101331.06;5009187;28;20144;-74
2023/07/15 05:35:36;;;;;;;0.82;0.40;;;;;;;18.46;58.66;101342.97;5009639;28;20490;-75
2023/07/15 05:38:03;;;;;;;0.50;0.30;;;;;;;18.55;58.50;101345.22;5009655;28;20065;-74
2023/07/15 05:40:31;;;;;;;1.58;1.27;;;;;;;18.68;58.37;101345.56;5009592;28;20415;-74
2023/07/15 05:42:58;;;;;;;1.65;0.45;;;;;;;18.64;57.95;101321.03;5009509;28;20103;-74
2023/07/15 05:45:25;;;;;;;0.60;0.30;;;;;;;18.89;57.77;101346.44;5009909;28;20418;-75
2023/07/15 05:47:52;;;;;;;1.38;0.30;;;;;;;18.98;57.44;101351.34;5009481;28;20073;-74
2023/07/15 05:50:19;;;;;;;1.52;0.40;;;;;;;19.08;57.43;101346.50;5009267;28;20137;-74
2023/07/15 05:52:46;;;;;;;0.65;0.40;;;;;;;19.17;56.84;101350.50;5006796;28;20057;-74
2023/07/15 05:55:13;;;;;;;0.32;0.32;;;;;;;19.25;56.65;101353.66;5009549;28;20046;-74
2023/07/15 05:57:41;;;;;;;1.88;0.40;;;;;;;19.33;56.75;101351.53;5009018;28;20073;-74
2023/07/15 06:00:09;;;;;;;0.52;0.38;;;;;;;19.41;56.47;101351.16;5009397;28;20057;-74
2023/07/15 06:02:38;;;;;;;2.95;0.60;;;;;;;19.46;56.45;101346.50;5009066;28;20050;-74
2023/07/15 06:05:06;;;;;;;1.48;0.30;;;;;;;19.54;55.77;101350.53;5009388;28;20050;-74
2023/07/15 06:07:33;;;;;;;4.25;0.70;;;;;;;19.61;55.58;101356.41;5008972;28;20046;-74
2023/07/15 06:10:00;;;;;;;0.52;0.30;;;;;;;19.68;55.56;101349.91;5007149;28;20064;-75
2023/07/15 06:12:26;;;;;;;1.75;0.30;;;;;;;19.73;55.48;101353.22;5008201;28;20431;-74
2023/07/15 06:14:55;;;;;;;0.65;0.40;;;;;;;19.79;55.36;101362.66;5009086;28;20054;-75
2023/07/15 06:17:22;;;;;;;2.15;0.25;;;;;;;19.79;55.16;101351.22;5009023;28;20136;-75
2023/07/15 06:19:49;;;;;;;1.70;0.30;;;;;;;19.88;54.97;101364.88;5007628;28;20052;-74
2023/07/15 06:22:16;;;;;;;0.70;0.40;;;;;;;19.92;55.11;101366.47;5007865;28;20052;-75
2023/07/15 06:24:43;;;;;;;4.57;0.57;;;;;;;19.94;54.78;101364.56;5008836;28;20049;-74
2023/07/15 06:27:10;;;;;;;0.70;0.30;;;;;;;19.97;54.45;101372.38;5008764;28;20049;-74
2023/07/15 06:29:37;;;;;;;1.65;0.30;;;;;;;19.93;54.71;101357.56;5008718;28;20045;-74
2023/07/15 06:32:06;;;;;;;0.80;0.30;;;;;;;20.03;54.35;101368.56;5008489;28;20385;-75
2023/07/15 06:34:33;;;;;;;2.78;0.40;;;;;;;20.07;54.36;101369.31;5008655;28;20128;-75
2023/07/15 06:37:00;;;;;;;1.10;0.98;;;;;;;20.10;54.02;101363.84;5007796;28;20161;-74
2023/07/15 06:39:27;;;;;;;0.63;0.32;;;;;;;20.13;54.11;101363.69;5008773;28;20056;-74
2023/07/15 06:41:54;;;;;;;0.60;0.30;;;;;;;20.16;53.88;101369.69;5008265;28;20151;-74
2023/07/15 06:44:21;;;;;;;0.90;0.40;;;;;;;20.21;53.87;101372.13;5008575;28;20061;-74
2023/07/15 06:46:48;;;;;;;1.38;0.40;;;;;;;20.24;53.87;101371.97;5006068;28;20049;-74
2023/07/15 06:49:16;;;;;;;0.60;0.30;;;;;;;20.27;54.01;101376.28;5008403;28;20138;-74
2023/07/15 06:51:43;;;;;;;2.03;0.30;;;;;;;20.29;53.99;101375.28;5007159;28;20053;-74
2023/07/15 06:54:10;;;;;;;1.15;0.35;;;;;;;20.30;53.63;101366.38;5008057;28;20053;-74
2023/07/15 06:56:37;;;;;;;1.40;0.30;;;;;;;20.33;53.48;101376.81;5008143;28;20046;-75
2023/07/15 06:59:03;;;;;;;0.43;0.30;;;;;;;20.34;53.56;101375.88;5007851;28;20482;-74
2023/07/15 07:01:30;;;;;;;0.38;0.30;;;;;;;20.36;53.57;101387.28;5008104;28;20053;-75
2023/07/15 07:03:57;;;;;;;0.40;0.30;;;;;;;20.39;53.44;101386.28;5008175;28;20052;-74
2023/07/15 07:06:27;;;;;;;0.82;0.30;;;;;;;20.32;53.46;101359.19;5008228;28;20050;-74
2023/07/15 07:08:54;;;;;;;0.40;0.30;;;;;;;20.41;53.49;101374.66;5006539;28;20881;-74
2023/07/15 07:11:21;;;;;;;1.77;0.40;;;;;;;20.47;53.50;101380.59;5007765;28;20565;-74
2023/07/15 07:13:48;;;;;;;0.50;0.30;;;;;;;20.51;53.43;101384.78;5005196;28;20057;-74
2023/07/15 07:16:15;;;;;;;2.05;0.40;;;;;;;20.55;53.61;101379.31;5008165;28;20414;-74
2023/07/15 07:18:42;;;;;;;0.60;0.30;;;;;;;20.57;53.25;101373.91;5007646;28;20078;-74
2023/07/15 07:21:09;;;;;;;2.95;0.50;;;;;;;20.63;53.06;101373.56;5007969;28;20061;-75
2023/07/15 07:23:37;;;;;;;2.08;0.40;;;;;;;20.69;53.29;101373.28;5007549;28;20467;-74
2023/07/15 07:26:04;;;;;;;3.42;0.30;;;;;;;20.75;52.93;101380.06;5007567;28;20052;-74
2023/07/15 07:28:42;;;;;;;1.58;0.30;;;;;;;20.81;52.83;101377.97;5007199;28;20388;-74
2023/07/15 07:31:10;;;;;;;0.88;0.30;;;;;;;20.84;52.36;101372.50;5007792;28;20456;-74
2023/07/15 07:33:37;;;;;;;1.50;0.30;;;;;;;20.91;52.02;101370.34;5007665;28;20056;-74
2023/07/15 07:36:04;;;;;;;0.40;0.30;;;;;;;20.96;51.93;101370.13;5008045;28;20054;-74
2023/07/15 07:38:32;;;;;;;1.70;0.30;;;;;;;21.09;52.10;101385.34;5007403;28;20050;-74
2023/07/15 07:41:06;;;;;;;1.27;0.30;;;;;;;21.18;51.58;101378.69;5007462;28;20048;-74
2023/07/15 07:43:33;;;;;;;2.40;0.30;;;;;;;21.15;51.10;101364.72;5006487;28;20053;-75
2023/07/15 07:46:00;;;;;;;1.42;0.30;;;;;;;21.32;50.79;101381.47;5006727;28;20054;-74
2023/07/15 07:48:27;;;;;;;2.45;0.30;;;;;;;21.41;50.42;101381.94;5005992;28;20579;-74
2023/07/15 07:50:55;;;;;;;0.30;0.22;;;;;;;21.47;50.48;101377.13;5007463;28;20050;-74
2023/07/15 07:53:22;;;;;;;0.88;0.30;;;;;;;21.52;50.52;101379.56;5007683;28;20056;-74
2023/07/15 07:55:49;;;;;;;0.95;0.30;;;;;;;21.62;50.14;101387.88;5007654;28;20077;-74
2023/07/15 07:58:17;;;;;;;0.60;0.30;;;;;;;21.68;49.83;101380.41;5007525;28;20050;-74
2023/07/15 08:00:45;;;;;;;1.10;0.38;;;;;;;21.73;49.98;101381.03;5007077;28;20056;-74
2023/07/15 08:03:12;;;;;;;2.70;0.20;;;;;;;21.77;49.30;101377.25;5007570;28;20049;-74
2023/07/15 08:05:42;;;;;;;1.17;0.77;;;;;;;21.81;49.29;101388.56;5006250;28;20045;-74
2023/07/15 08:08:09;;;;;;;0.75;0.30;;;;;;;21.85;49.36;101398.09;5006438;28;20093;-75
2023/07/15 08:10:36;;;;;;;1.25;0.28;;;;;;;21.90;49.26;101398.69;5007457;28;20092;-75
2023/07/15 08:13:05;;;;;;;1.13;0.30;;;;;;;21.95;49.27;101393.13;5007371;28;20491;-74
2023/07/15 08:15:34;;;;;;;1.33;0.25;;;;;;;21.97;48.75;101389.44;5007399;28;20667;-74
2023/07/15 08:18:02;;;;;;;0.80;0.20;;;;;;;21.95;48.26;101383.34;5006097;28;20050;-75
2023/07/15 08:20:30;;;;;;;2.40;0.20;;;;;;;22.06;48.25;101395.16;5006096;28;20050;-75
2023/07/15 08:22:58;;;;;;;2.05;0.20;;;;;;;22.09;48.54;101395.88;5007326;28;20053;-74
2023/07/15 08:25:25;;;;;;;0.77;0.20;;;;;;;22.14;48.02;101396.47;5007319;28;20054;-75
2023/07/15 08:27:53;;;;;;;2.22;0.20;;;;;;;22.16;47.80;101394.56;5007276;28;20111;-75
2023/07/15 08:30:20;;;;;;;1.05;0.43;;;;;;;22.21;47.82;101397.84;5007364;28;20057;-75
2023/07/15 08:32:49;;;;;;;0.68;0.20;;;;;;;22.26;47.10;101402.06;5007132;28;20049;-75
2023/07/15 08:35:15;;;;;;;0.47;0.20;;;;;;;22.29;47.49;101413.38;5008773;28;20569;-74
2023/07/15 08:37:42;;;;;;;0.32;0.25;;;;;;;22.25;46.88;101395.00;5008586;28;20048;-75
2023/07/15 08:40:11;;;;;;;0.65;0.20;;;;;;;22.36;46.70;101406.75;5011346;28;20100;-74
2023/07/15 08:42:38;;;;;;;1.00;0.20;;;;;;;22.39;46.01;101401.25;5010548;28;20350;-75
2023/07/15 08:45:06;;;;;;;0.43;0.25;;;;;;;22.42;45.66;101394.88;5009237;28;20057;-75
2023/07/15 08:47:33;;;;;;;0.30;0.20;;;;;;;22.44;45.75;101404.50;5010643;28;20495;-74
2023/07/15 08:50:05;;;;;;;0.77;0.20;;;;;;;22.45;45.43;101397.38;5009445;28;20514;-74
2023/07/15 08:52:32;;;;;;;0.93;0.20;;;;;;;22.50;45.23;101399.78;5010433;28;20060;-75
2023/07/15 08:55:01;;;;;;;0.30;0.17;;;;;;;22.54;45.80;101404.84;5010513;28;20046;-74
2023/07/15 08:57:28;;;;;;;0.35;0.20;;;;;;;22.57;45.31;101406.44;5010545;28;20057;-75
2023/07/15 08:59:56;;;;;;;0.28;0.17;;;;;;;22.58;45.41;101410.84;5010373;28;20546;-74
2023/07/15 09:02:23;;;;;;;2.30;0.20;;;;;;;22.58;45.14;101409.03;5010601;28;20541;-75
2023/07/15 09:04:50;;;;;;;1.00;0.10;;;;;;;22.64;44.71;101405.13;5010252;28;20505;-75
2023/07/15 09:07:26;;;;;;;0.22;0.20;;;;;;;22.65;45.12;101413.06;5010381;28;20050;-74
2023/07/15 09:09:53;;;;;;;0.40;0.10;;;;;;;22.66;45.07;101398.78;5010143;28;20052;-74
2023/07/15 09:12:24;;;;;;;2.50;0.20;;;;;;;22.68;45.14;101407.53;5010325;28;20080;-74
2023/07/15 09:14:51;;;;;;;0.30;0.10;;;;;;;22.71;45.10;101408.28;5009161;28;20633;-74
2023/07/15 09:17:20;;;;;;;2.30;0.20;;;;;;;22.73;44.09;101398.41;5010182;28;20057;-74
2023/07/15 09:19:47;;;;;;;0.45;0.10;;;;;;;22.76;44.18;101403.56;5009704;28;20045;-75
2023/07/15 09:22:15;;;;;;;0.20;0.10;;;;;;;22.80;44.44;101408.63;5010146;28;20524;-75
2023/07/15 09:24:43;;;;;;;0.43;0.10;;;;;;;22.82;43.92;101396.03;5009789;28;20053;-75
2023/07/15 09:27:10;;;;;;;1.40;0.10;;;;;;;22.87;44.21;101393.09;5009850;28;20050;-74
2023/07/15 09:29:37;;;;;;;0.75;0.20;;;;;;;22.91;43.67;101405.31;5009821;28;20053;-75
2023/07/15 09:32:05;;;;;;;0.98;0.10;;;;;;;22.93;43.82;101408.72;5009937;28;20418;-75
2023/07/15 09:34:32;;;;;;;1.30;0.20;;;;;;;22.93;43.93;101403.38;5009824;28;20401;-75
2023/07/15 09:36:59;;;;;;;0.13;0.10;;;;;;;22.96;43.56;101402.38;5009653;28;20128;-75
2023/07/15 09:39:26;;;;;;;0.10;0.10;;;;;;;22.97;42.99;101399.66;5009797;28;20046;-75
2023/07/15 09:42:02;;;;;;;1.17;0.10;;;;;;;23.00;43.09;101398.59;5009529;28;20038;-74
2023/07/15 09:44:39;;;;;;;0.30;0.10;;;;;;;23.02;42.53;101402.00;5009483;28;20057;-74
2023/07/15 09:47:07;;;;;;;0.47;0.20;;;;;;;23.04;42.05;101411.63;5006802;28;20057;-75
2023/07/15 09:49:35;;;;;;;2.58;0.10;;;;;;;23.06;41.65;101403.56;5007762;28;20398;-74
2023/07/15 09:52:04;;;;;;;0.30;0.10;;;;;;;23.06;41.98;101404.41;5009224;28;20050;-75
2023/07/15 09:54:33;;;;;;;0.10;0.10;;;;;;;23.09;41.96;101401.56;5009486;28;20621;-75
2023/07/15 09:57:04;;;;;;;1.25;0.10;;;;;;;23.11;41.88;101402.31;5009516;28;20486;-75
2023/07/15 09:59:41;;;;;;;0.40;0.13;;;;;;;23.14;40.81;101403.94;5009152;28;20046;-75
2023/07/15 10:02:18;;;;;;;1.17;0.10;;;;;;;23.18;41.13;101407.28;5008621;28;20196;-75
2023/07/15 10:04:46;;;;;;;1.73;0.20;;;;;;;23.21;40.69;101404.41;5006883;28;20474;-75
2023/07/15 10:07:15;;;;;;;0.22;0.10;;;;;;;23.24;40.60;101393.56;5006892;28;20056;-74
2023/07/15 10:09:42;;;;;;;1.33;0.20;;;;;;;23.26;41.07;101405.00;5007985;28;20046;-75
2023/07/15 10:12:10;;;;;;;0.75;0.20;;;;;;;23.31;41.24;101397.56;5009031;28;20054;-74
2023/07/15 10:14:38;;;;;;;0.80;0.10;;;;;;;23.34;39.72;101398.25;5008282;28;20046;-75
2023/07/15 10:17:10;;;;;;;0.95;0.20;;;;;;;23.32;39.51;101389.47;5008412;28;20054;-75
2023/07/15 10:19:42;;;;;;;0.30;0.20;;;;;;;23.39;40.36;101395.25;5008559;28;20045;-75
2023/07/15 10:22:09;;;;;;;0.68;0.10;;;;;;;23.41;39.55;101398.69;5007712;28;20057;-72
2023/07/15 10:24:36;;;;;;;0.10;0.10;;;;;;;23.45;39.82;101405.56;5008702;28;20060;-76
2023/07/15 10:27:06;;;;;;;0.55;0.15;;;;;;;23.48;39.10;101415.16;5008999;28;20045;-72
2023/07/15 10:29:34;;;;;;;1.55;0.10;;;;;;;23.48;38.30;101409.81;5008222;28;20447;-74
2023/07/15 10:32:09;;;;;;;0.30;0.10;;;;;;;23.49;38.47;101409.75;5008265;28;20052;-74
2023/07/15 10:34:36;;;;;;;0.63;0.10;;;;;;;23.50;37.57;101406.13;5005772;28;20054;-75
2023/07/15 10:37:07;;;;;;;0.60;0.10;;;;;;;23.50;38.29;101411.44;5008835;28;20042;-75
2023/07/15 10:39:35;;;;;;;0.90;0.13;;;;;;;23.51;38.35;101412.34;5006126;28;20505;-75
2023/07/15 10:42:09;;;;;;;0.20;0.10;;;;;;;23.52;37.98;101406.88;5008818;28;20317;-76
2023/07/15 10:44:44;;;;;;;0.17;0.10;;;;;;;23.53;37.85;101402.41;5008279;28;20052;-74
2023/07/15 10:47:14;;;;;;;0.15;0.10;;;;;;;23.55;38.50;101405.84;5008573;28;20050;-75
2023/07/15 10:49:41;;;;;;;0.10;0.10;;;;;;;23.56;38.46;101407.53;5008136;28;20223;-74
2023/07/15 10:52:09;;;;;;;0.20;0.10;;;;;;;23.53;37.29;101400.59;5008267;28;20498;-74
2023/07/15 10:54:38;;;;;;;0.47;0.10;;;;;;;23.57;38.46;101401.28;5008063;28;20046;-74
2023/07/15 10:57:10;;;;;;;0.85;0.20;;;;;;;23.59;38.20;101407.34;5007144;28;20053;-75
2023/07/15 10:59:41;;;;;;;0.50;0.10;;;;;;;23.55;38.12;101382.69;5007571;28;20052;-75
2023/07/15 11:02:08;;;;;;;0.28;0.20;;;;;;;23.62;38.08;101395.63;5008361;28;20100;-74
2023/07/15 11:04:36;;;;;;;0.40;0.10;;;;;;;23.62;38.52;101399.16;5008120;28;20057;-74
2023/07/15 11:07:04;;;;;;;0.77;0.10;;;;;;;23.63;37.65;101392.03;5008167;28;20049;-74
2023/07/15 11:09:32;;;;;;;2.00;0.10;;;;;;;23.63;37.70;101395.53;5007318;28;20133;-74
2023/07/15 11:11:59;;;;;;;0.47;0.30;;;;;;;23.63;36.92;101397.38;5007303;28;20054;-74
2023/07/15 11:14:27;;;;;;;0.20;0.10;;;;;;;23.63;36.78;101403.53;5006931;28;20054;-75
2023/07/15 11:16:57;;;;;;;0.75;0.10;;;;;;;23.65;36.61;101403.44;5007924;28;20053;-75
2023/07/15 11:19:26;;;;;;;2.20;0.10;;;;;;;23.64;36.32;101399.06;5007508;28;20388;-74
2023/07/15 11:21:53;;;;;;;1.75;0.28;;;;;;;23.62;36.61;101396.47;5007236;28;20049;-75
2023/07/15 11:24:22;;;;;;;1.45;0.20;;;;;;;23.68;36.96;101405.91;5007394;28;20080;-75
2023/07/15 11:26:50;;;;;;;2.63;0.20;;;;;;;23.64;36.59;101389.25;5007295;28;20042;-74